createdAt,value
2023-05-18T00:00:02.182Z,92.57
2023-05-18T00:01:01.737Z,92.61
2023-05-18T00:02:01.922Z,92.81
2023-05-18T00:03:02.275Z,92.87
2023-05-18T00:04:02.472Z,92.50
2023-05-18T00:05:03.229Z,91.99
2023-05-18T00:06:02.737Z,92.87
2023-05-18T00:07:04.690Z,92.87
2023-05-18T00:08:03.087Z,92.46
2023-05-18T00:09:03.153Z,91.63
2023-05-18T00:10:03.358Z,91.78
2023-05-18T00:11:05.055Z,91.74
2023-05-18T00:12:04.212Z,92.61
2023-05-18T00:13:05.184Z,92.05
2023-05-18T00:14:04.028Z,92.67
2023-05-18T00:15:04.681Z,91.84
2023-05-18T00:16:05.262Z,91.80
2023-05-18T00:17:05.185Z,91.59
2023-05-18T00:18:04.927Z,91.53
2023-05-18T00:19:04.993Z,91.53
2023-05-18T00:20:05.182Z,91.53
2023-05-18T00:21:05.385Z,91.11
2023-05-18T00:22:06.186Z,91.88
2023-05-18T00:23:05.861Z,91.88
2023-05-18T00:24:06.005Z,91.99
2023-05-18T00:25:07.745Z,92.30
2023-05-18T00:26:07.184Z,92.25
2023-05-18T00:27:06.547Z,92.30
2023-05-18T00:28:06.716Z,92.81
2023-05-18T00:29:07.690Z,92.30
2023-05-18T00:30:07.053Z,92.09
2023-05-18T00:31:07.249Z,91.99
2023-05-18T00:32:08.234Z,92.40
2023-05-18T00:33:07.664Z,92.91
2023-05-18T00:34:07.761Z,92.91
2023-05-18T00:35:08.693Z,92.81
2023-05-18T00:36:08.063Z,92.91
2023-05-18T00:37:08.737Z,93.27
2023-05-18T00:38:08.356Z,92.91
2023-05-18T00:39:08.746Z,93.43
2023-05-18T00:40:08.640Z,92.81
2023-05-18T00:41:09.795Z,92.65
2023-05-18T00:42:10.202Z,92.55
2023-05-18T00:43:09.705Z,92.55
2023-05-18T00:44:10.197Z,92.76
2023-05-18T00:45:09.551Z,93.06
2023-05-18T00:46:10.767Z,92.65
2023-05-18T00:47:09.827Z,93.21
2023-05-18T00:48:09.952Z,93.73
2023-05-18T00:49:10.106Z,93.62
2023-05-18T00:50:10.295Z,94.35
2023-05-18T00:51:10.459Z,93.87
2023-05-18T00:52:12.198Z,93.73
2023-05-18T00:53:10.831Z,93.73
2023-05-18T00:54:11.717Z,94.14
2023-05-18T00:55:11.751Z,93.93
2023-05-18T00:56:11.371Z,93.73
2023-05-18T00:57:12.067Z,93.93
2023-05-18T00:58:11.680Z,94.04
2023-05-18T00:59:12.037Z,94.24
2023-05-18T01:00:11.964Z,94.14
2023-05-18T01:01:12.213Z,93.93
2023-05-18T01:02:12.345Z,93.46
2023-05-18T01:03:13.410Z,93.83
2023-05-18T01:04:13.276Z,94.70
2023-05-18T01:05:13.746Z,94.60
2023-05-18T01:06:13.037Z,94.70
2023-05-18T01:07:14.069Z,94.56
2023-05-18T01:08:14.243Z,93.73
2023-05-18T01:09:13.603Z,94.04
2023-05-18T01:10:13.640Z,93.83
2023-05-18T01:11:14.793Z,94.66
2023-05-18T01:12:14.708Z,93.93
2023-05-18T01:13:14.709Z,93.93
2023-05-18T01:14:17.216Z,94.04
2023-05-18T01:15:14.603Z,94.08
2023-05-18T01:16:14.800Z,93.87
2023-05-18T01:17:15.030Z,94.60
2023-05-18T01:18:15.161Z,94.14
2023-05-18T01:19:15.810Z,94.39
2023-05-18T01:20:15.414Z,94.91
2023-05-18T01:21:15.606Z,95.01
2023-05-18T01:22:15.785Z,95.01
2023-05-18T01:23:15.976Z,94.70
2023-05-18T01:24:16.204Z,94.91
2023-05-18T01:25:17.232Z,94.74
2023-05-18T01:26:16.486Z,94.91
2023-05-18T01:27:16.704Z,94.49
2023-05-18T01:28:17.709Z,94.70
2023-05-18T01:29:17.709Z,94.70
2023-05-18T01:30:17.295Z,95.06
2023-05-18T01:31:18.388Z,94.49
2023-05-18T01:32:18.251Z,94.81
2023-05-18T01:33:18.269Z,94.95
2023-05-18T01:34:18.715Z,94.54
2023-05-18T01:35:18.180Z,95.06
2023-05-18T01:36:18.387Z,94.85
2023-05-18T01:37:18.602Z,94.85
2023-05-18T01:38:18.806Z,95.47
2023-05-18T01:39:19.715Z,94.54
2023-05-18T01:40:19.137Z,95.06
2023-05-18T01:41:19.326Z,94.74
2023-05-18T01:42:19.558Z,95.00
2023-05-18T01:43:19.816Z,95.16
2023-05-18T01:44:20.719Z,95.41
2023-05-18T01:45:20.722Z,95.16
2023-05-18T01:46:20.293Z,95.37
2023-05-18T01:47:20.774Z,95.37
2023-05-18T01:48:21.256Z,94.64
2023-05-18T01:49:21.711Z,94.95
2023-05-18T01:50:20.867Z,94.54
2023-05-18T01:51:22.238Z,94.64
2023-05-18T01:52:21.362Z,94.85
2023-05-18T01:53:21.436Z,94.48
2023-05-18T01:54:22.253Z,94.89
2023-05-18T01:55:21.783Z,94.89
2023-05-18T01:56:22.008Z,95.20
2023-05-18T01:57:22.210Z,95.00
2023-05-18T01:58:23.291Z,94.89
2023-05-18T01:59:23.213Z,95.20
2023-05-18T02:00:23.258Z,95.10
2023-05-18T02:01:23.055Z,95.00
2023-05-18T02:02:23.813Z,95.00
2023-05-18T02:03:23.875Z,95.20
2023-05-18T02:04:23.427Z,95.51
2023-05-18T02:05:23.589Z,95.31
2023-05-18T02:06:24.712Z,95.31
2023-05-18T02:07:23.939Z,95.20
2023-05-18T02:08:24.071Z,95.20
2023-05-18T02:09:24.245Z,95.20
2023-05-18T02:10:24.426Z,95.31
2023-05-18T02:11:24.586Z,95.20
2023-05-18T02:12:24.779Z,95.20
2023-05-18T02:13:24.913Z,95.36
2023-05-18T02:14:25.043Z,95.56
2023-05-18T02:15:25.209Z,95.36
2023-05-18T02:16:25.421Z,96.14
2023-05-18T02:17:26.361Z,96.08
2023-05-18T02:18:26.213Z,96.29
2023-05-18T02:19:25.945Z,96.08
2023-05-18T02:20:27.428Z,96.39
2023-05-18T02:21:26.315Z,96.29
2023-05-18T02:22:28.221Z,96.39
2023-05-18T02:23:26.594Z,96.08
2023-05-18T02:24:26.712Z,96.29
2023-05-18T02:25:26.862Z,96.19
2023-05-18T02:26:27.007Z,96.03
2023-05-18T02:27:27.169Z,96.29
2023-05-18T02:28:28.304Z,95.98
2023-05-18T02:29:28.261Z,96.03
2023-05-18T02:30:28.581Z,96.39
2023-05-18T02:31:27.832Z,96.39
2023-05-18T02:32:28.094Z,96.29
2023-05-18T02:33:28.170Z,96.29
2023-05-18T02:34:28.316Z,96.39
2023-05-18T02:35:29.396Z,96.70
2023-05-18T02:36:30.078Z,96.29
2023-05-18T02:37:29.712Z,96.24
2023-05-18T02:38:28.977Z,96.29
2023-05-18T02:39:29.148Z,95.98
2023-05-18T02:40:30.258Z,95.77
2023-05-18T02:41:29.499Z,95.98
2023-05-18T02:42:29.633Z,95.46
2023-05-18T02:43:29.801Z,95.41
2023-05-18T02:44:29.998Z,95.25
2023-05-18T02:45:30.960Z,95.31
2023-05-18T02:46:31.297Z,95.56
2023-05-18T02:47:31.264Z,95.51
2023-05-18T02:48:31.799Z,95.67
2023-05-18T02:49:32.726Z,95.56
2023-05-18T02:50:31.251Z,95.00
2023-05-18T02:51:32.266Z,95.00
2023-05-18T02:52:31.682Z,94.73
2023-05-18T02:53:31.883Z,95.67
2023-05-18T02:54:32.762Z,95.15
2023-05-18T02:55:32.523Z,95.31
2023-05-18T02:56:34.219Z,95.87
2023-05-18T02:57:32.761Z,95.46
2023-05-18T02:58:32.974Z,95.77
2023-05-18T02:59:33.184Z,95.77
2023-05-18T03:00:34.221Z,94.94
2023-05-18T03:01:34.295Z,95.46
2023-05-18T03:02:35.361Z,95.36
2023-05-18T03:03:34.814Z,95.25
2023-05-18T03:04:34.126Z,95.46
2023-05-18T03:05:35.224Z,95.87
2023-05-18T03:06:35.296Z,95.36
2023-05-18T03:07:34.681Z,95.36
2023-05-18T03:08:34.893Z,95.29
2023-05-18T03:09:35.089Z,95.34
2023-05-18T03:10:35.243Z,95.54
2023-05-18T03:11:36.727Z,96.83
2023-05-18T03:12:35.627Z,96.94
2023-05-18T03:13:36.767Z,97.30
2023-05-18T03:14:35.940Z,97.50
2023-05-18T03:15:36.121Z,98.13
2023-05-18T03:16:37.301Z,98.13
2023-05-18T03:17:36.483Z,98.33
2023-05-18T03:18:36.610Z,98.29
2023-05-18T03:19:36.773Z,97.77
2023-05-18T03:20:37.735Z,97.67
2023-05-18T03:21:37.738Z,96.94
2023-05-18T03:22:37.284Z,97.25
2023-05-18T03:23:37.455Z,96.94
2023-05-18T03:24:37.633Z,97.04
2023-05-18T03:25:37.797Z,96.48
2023-05-18T03:26:37.988Z,96.37
2023-05-18T03:27:38.770Z,96.69
2023-05-18T03:28:39.740Z,96.62
2023-05-18T03:29:38.524Z,96.52
2023-05-18T03:30:38.726Z,96.52
2023-05-18T03:31:38.935Z,96.62
2023-05-18T03:32:39.795Z,96.31
2023-05-18T03:33:39.269Z,95.48
2023-05-18T03:34:39.436Z,95.75
2023-05-18T03:35:39.576Z,95.59
2023-05-18T03:36:39.736Z,95.59
2023-05-18T03:37:40.596Z,95.44
2023-05-18T03:38:40.147Z,95.59
2023-05-18T03:39:40.355Z,95.59
2023-05-18T03:40:41.241Z,95.54
2023-05-18T03:41:40.780Z,96.06
2023-05-18T03:42:40.981Z,95.65
2023-05-18T03:43:41.744Z,95.75
2023-05-18T03:44:43.247Z,95.54
2023-05-18T03:45:41.642Z,95.86
2023-05-18T03:46:41.978Z,95.86
2023-05-18T03:47:42.025Z,95.86
2023-05-18T03:48:42.239Z,95.75
2023-05-18T03:49:44.102Z,95.44
2023-05-18T03:50:43.243Z,95.54
2023-05-18T03:51:43.740Z,95.75
2023-05-18T03:52:43.601Z,95.65
2023-05-18T03:53:43.112Z,96.58
2023-05-18T03:54:43.272Z,96.48
2023-05-18T03:55:45.743Z,96.64
2023-05-18T03:56:43.614Z,96.48
2023-05-18T03:57:44.744Z,96.69
2023-05-18T03:58:44.745Z,96.69
2023-05-18T03:59:44.111Z,95.92
2023-05-18T04:00:44.267Z,95.96
2023-05-18T04:01:45.381Z,95.54
2023-05-18T04:02:45.389Z,95.54
2023-05-18T04:03:45.353Z,95.50
2023-05-18T04:04:45.748Z,95.61
2023-05-18T04:05:45.781Z,95.50
2023-05-18T04:06:45.292Z,95.50
2023-05-18T04:07:46.240Z,95.19
2023-05-18T04:08:46.627Z,95.09
2023-05-18T04:09:45.772Z,95.19
2023-05-18T04:10:45.937Z,94.78
2023-05-18T04:11:46.812Z,94.78
2023-05-18T04:12:46.373Z,94.57
2023-05-18T04:13:46.537Z,94.67
2023-05-18T04:14:46.748Z,95.03
2023-05-18T04:15:46.913Z,95.34
2023-05-18T04:16:47.940Z,95.44
2023-05-18T04:17:49.302Z,95.40
2023-05-18T04:18:48.265Z,95.13
2023-05-18T04:19:47.751Z,95.44
2023-05-18T04:20:47.940Z,95.34
2023-05-18T04:21:48.133Z,95.40
2023-05-18T04:22:50.751Z,95.23
2023-05-18T04:23:48.510Z,95.34
2023-05-18T04:24:49.763Z,95.54
2023-05-18T04:25:48.898Z,95.96
2023-05-18T04:26:49.094Z,95.54
2023-05-18T04:27:51.479Z,95.75
2023-05-18T04:28:50.793Z,95.65
2023-05-18T04:29:49.685Z,95.90
2023-05-18T04:30:50.745Z,95.65
2023-05-18T04:31:50.796Z,96.06
2023-05-18T04:32:50.814Z,96.37
2023-05-18T04:33:50.466Z,96.75
2023-05-18T04:34:51.253Z,95.54
2023-05-18T04:35:50.661Z,95.75
2023-05-18T04:36:50.830Z,95.71
2023-05-18T04:37:51.011Z,95.71
2023-05-18T04:38:51.162Z,95.29
2023-05-18T04:39:52.282Z,95.25
2023-05-18T04:40:51.552Z,95.25
2023-05-18T04:41:51.743Z,94.84
2023-05-18T04:42:51.963Z,94.32
2023-05-18T04:43:52.110Z,94.37
2023-05-18T04:44:53.249Z,94.06
2023-05-18T04:45:52.528Z,94.27
2023-05-18T04:46:53.748Z,93.44
2023-05-18T04:47:52.945Z,93.81
2023-05-18T04:48:53.038Z,93.29
2023-05-18T04:49:53.753Z,93.19
2023-05-18T04:50:53.402Z,92.94
2023-05-18T04:51:53.797Z,91.61
2023-05-18T04:52:53.883Z,90.99
2023-05-18T04:53:53.910Z,88.88
2023-05-18T04:54:54.070Z,88.94
2023-05-18T04:55:54.228Z,88.64
2023-05-18T04:56:54.384Z,88.80
2023-05-18T04:57:55.754Z,88.80
2023-05-18T04:58:54.789Z,89.22
2023-05-18T04:59:55.803Z,88.90
2023-05-18T05:00:55.768Z,88.59
2023-05-18T05:01:55.486Z,88.70
2023-05-18T05:02:55.940Z,89.32
2023-05-18T05:03:58.254Z,89.32
2023-05-18T05:04:55.971Z,89.46
2023-05-18T05:05:56.105Z,89.11
2023-05-18T05:06:57.254Z,89.52
2023-05-18T05:07:57.289Z,88.90
2023-05-18T05:08:56.648Z,89.62
2023-05-18T05:09:56.841Z,89.11
2023-05-18T05:10:56.989Z,89.32
2023-05-18T05:11:57.748Z,89.36
2023-05-18T05:12:57.295Z,89.36
2023-05-18T05:13:57.439Z,88.90
2023-05-18T05:14:58.294Z,89.52
2023-05-18T05:15:57.850Z,89.01
2023-05-18T05:16:58.055Z,89.52
2023-05-18T05:17:58.278Z,89.62
2023-05-18T05:18:58.464Z,88.86
2023-05-18T05:19:58.646Z,89.11
2023-05-18T05:20:58.828Z,88.55
2023-05-18T05:22:00.249Z,88.20
2023-05-18T05:22:59.176Z,87.44
2023-05-18T05:24:00.250Z,87.99
2023-05-18T05:24:59.483Z,88.10
2023-05-18T05:25:59.630Z,87.54
2023-05-18T05:27:00.749Z,87.37
2023-05-18T05:28:00.000Z,87.48
2023-05-18T05:29:00.163Z,87.37
2023-05-18T05:30:00.327Z,87.44
2023-05-18T05:31:01.152Z,86.86
2023-05-18T05:32:00.776Z,86.96
2023-05-18T05:33:00.864Z,87.17
2023-05-18T05:34:01.329Z,87.37
2023-05-18T05:35:02.114Z,87.23
2023-05-18T05:36:01.498Z,87.19
2023-05-18T05:37:01.676Z,87.81
2023-05-18T05:38:01.857Z,87.19
2023-05-18T05:39:03.261Z,86.36
2023-05-18T05:40:02.161Z,86.94
2023-05-18T05:41:02.348Z,87.05
2023-05-18T05:42:02.513Z,87.21
2023-05-18T05:43:03.259Z,86.60
2023-05-18T05:44:02.780Z,86.08
2023-05-18T05:45:03.819Z,86.29
2023-05-18T05:46:03.096Z,85.67
2023-05-18T05:47:04.329Z,85.57
2023-05-18T05:48:03.408Z,86.18
2023-05-18T05:49:03.569Z,85.77
2023-05-18T05:50:03.731Z,86.29
2023-05-18T05:51:03.916Z,85.94
2023-05-18T05:52:04.746Z,85.11
2023-05-18T05:53:04.228Z,84.43
2023-05-18T05:54:05.199Z,84.53
2023-05-18T05:55:05.578Z,85.05
2023-05-18T05:56:04.701Z,85.60
2023-05-18T05:57:04.942Z,85.30
2023-05-18T05:58:05.080Z,85.71
2023-05-18T05:59:06.221Z,86.12
2023-05-18T06:00:05.338Z,86.08
2023-05-18T06:01:06.259Z,85.39
2023-05-18T06:02:05.745Z,86.02
2023-05-18T06:03:05.970Z,84.99
2023-05-18T06:04:06.048Z,84.36
2023-05-18T06:05:06.228Z,85.19
2023-05-18T06:06:06.407Z,85.30
2023-05-18T06:07:06.599Z,85.30
2023-05-18T06:08:07.754Z,84.88
2023-05-18T06:09:06.996Z,84.57
2023-05-18T06:10:07.759Z,84.06
2023-05-18T06:11:09.354Z,85.19
2023-05-18T06:12:08.266Z,84.27
2023-05-18T06:13:08.756Z,84.78
2023-05-18T06:14:07.907Z,84.47
2023-05-18T06:15:08.769Z,84.57
2023-05-18T06:16:08.321Z,84.88
2023-05-18T06:17:08.413Z,85.19
2023-05-18T06:18:09.547Z,85.25
2023-05-18T06:19:08.790Z,85.05
2023-05-18T06:20:08.939Z,85.25
2023-05-18T06:21:09.105Z,85.46
2023-05-18T06:22:09.258Z,85.97
2023-05-18T06:23:09.454Z,84.08
2023-05-18T06:24:10.256Z,83.47
2023-05-18T06:25:09.777Z,84.29
2023-05-18T06:26:09.940Z,83.77
2023-05-18T06:27:10.766Z,83.67
2023-05-18T06:28:10.355Z,83.36
2023-05-18T06:29:10.535Z,82.64
2023-05-18T06:30:10.731Z,84.29
2023-05-18T06:31:12.768Z,83.53
2023-05-18T06:32:11.195Z,82.46
2023-05-18T06:33:11.439Z,81.77
2023-05-18T06:34:12.325Z,81.47
2023-05-18T06:35:11.705Z,81.84
2023-05-18T06:36:11.876Z,82.05
2023-05-18T06:37:12.037Z,81.33
2023-05-18T06:38:12.809Z,81.43
2023-05-18T06:39:13.335Z,82.25
2023-05-18T06:40:12.588Z,81.23
2023-05-18T06:41:12.708Z,80.51
2023-05-18T06:42:13.762Z,81.23
2023-05-18T06:43:13.811Z,82.25
2023-05-18T06:44:14.270Z,81.95
2023-05-18T06:45:13.368Z,82.05
2023-05-18T06:46:13.550Z,81.39
2023-05-18T06:47:13.840Z,80.88
2023-05-18T06:48:13.952Z,80.74
2023-05-18T06:49:14.782Z,81.29
2023-05-18T06:50:14.256Z,80.16
2023-05-18T06:51:14.494Z,80.12
2023-05-18T06:52:14.824Z,80.12
2023-05-18T06:53:14.844Z,80.12
2023-05-18T06:54:15.022Z,80.63
2023-05-18T06:55:15.374Z,78.78
2023-05-18T06:56:16.330Z,78.68
2023-05-18T06:57:15.566Z,78.89
2023-05-18T06:58:15.696Z,80.02
2023-05-18T06:59:16.822Z,79.61
2023-05-18T07:00:16.788Z,79.98
2023-05-18T07:01:16.350Z,79.36
2023-05-18T07:02:16.488Z,79.98
2023-05-18T07:03:16.820Z,79.77
2023-05-18T07:04:18.282Z,79.84
2023-05-18T07:05:16.910Z,78.81
2023-05-18T07:06:17.766Z,78.98
2023-05-18T07:07:18.296Z,77.75
2023-05-18T07:08:17.475Z,78.06
2023-05-18T07:09:17.674Z,78.02
2023-05-18T07:10:17.847Z,77.81
2023-05-18T07:11:18.035Z,78.02
2023-05-18T07:12:18.187Z,76.89
2023-05-18T07:13:19.280Z,76.51
2023-05-18T07:14:18.516Z,75.38
2023-05-18T07:15:18.681Z,75.18
2023-05-18T07:16:20.348Z,76.20
2023-05-18T07:17:18.990Z,76.51
2023-05-18T07:18:19.161Z,75.11
2023-05-18T07:19:19.378Z,75.35
2023-05-18T07:20:19.560Z,76.48
2023-05-18T07:21:19.714Z,76.28
2023-05-18T07:22:19.905Z,76.48
2023-05-18T07:23:20.104Z,76.48
2023-05-18T07:24:20.821Z,74.91
2023-05-18T07:25:21.360Z,74.94
2023-05-18T07:26:21.285Z,76.68
2023-05-18T07:27:20.827Z,75.01
2023-05-18T07:28:21.838Z,74.91
2023-05-18T07:29:21.212Z,74.87
2023-05-18T07:30:22.824Z,74.66
2023-05-18T07:31:22.333Z,74.36
2023-05-18T07:32:21.858Z,73.30
2023-05-18T07:33:22.044Z,72.41
2023-05-18T07:34:22.240Z,73.74
2023-05-18T07:35:22.403Z,73.95
2023-05-18T07:36:23.327Z,72.68
2023-05-18T07:37:22.724Z,73.02
2023-05-18T07:38:24.790Z,72.86
2023-05-18T07:39:24.291Z,71.22
2023-05-18T07:40:23.193Z,71.66
2023-05-18T07:41:25.293Z,72.72
2023-05-18T07:42:24.346Z,73.44
2023-05-18T07:43:23.786Z,73.74
2023-05-18T07:44:25.294Z,73.81
2023-05-18T07:45:24.207Z,72.89
2023-05-18T07:46:24.473Z,73.71
2023-05-18T07:47:24.572Z,73.50
2023-05-18T07:48:24.801Z,73.78
2023-05-18T07:49:25.000Z,73.54
2023-05-18T07:50:25.268Z,72.24
2023-05-18T07:51:25.348Z,72.82
2023-05-18T07:52:25.537Z,71.53
2023-05-18T07:53:25.728Z,70.67
2023-05-18T07:54:26.794Z,70.26
2023-05-18T07:55:26.349Z,71.59
2023-05-18T07:56:26.266Z,70.91
2023-05-18T07:57:26.438Z,70.84
2023-05-18T07:58:26.603Z,72.72
2023-05-18T07:59:27.375Z,71.97
2023-05-18T08:00:27.789Z,71.97
2023-05-18T08:01:27.150Z,71.39
2023-05-18T08:02:27.455Z,71.59
2023-05-18T08:03:28.411Z,72.00
2023-05-18T08:04:27.772Z,71.11
2023-05-18T08:05:28.947Z,72.11
2023-05-18T08:06:28.039Z,71.90
2023-05-18T08:07:28.210Z,72.24
2023-05-18T08:08:29.412Z,72.61
2023-05-18T08:09:28.559Z,72.92
2023-05-18T08:10:29.293Z,72.07
2023-05-18T08:11:28.919Z,72.34
2023-05-18T08:12:29.082Z,69.89
2023-05-18T08:13:29.804Z,70.67
2023-05-18T08:14:29.469Z,71.08
2023-05-18T08:15:29.860Z,70.78
2023-05-18T08:16:31.817Z,72.72
2023-05-18T08:17:30.132Z,72.41
2023-05-18T08:18:30.255Z,71.70
2023-05-18T08:19:30.439Z,71.59
2023-05-18T08:20:30.525Z,72.38
2023-05-18T08:21:30.771Z,71.90
2023-05-18T08:22:31.797Z,72.00
2023-05-18T08:23:31.086Z,72.00
2023-05-18T08:24:31.296Z,72.62
2023-05-18T08:25:31.672Z,71.83
2023-05-18T08:26:32.346Z,72.55
2023-05-18T08:27:32.295Z,73.61
2023-05-18T08:28:31.990Z,73.40
2023-05-18T08:29:33.801Z,74.11
2023-05-18T08:30:33.293Z,73.10
2023-05-18T08:31:32.427Z,72.34
2023-05-18T08:32:32.640Z,73.54
2023-05-18T08:33:33.314Z,72.31
2023-05-18T08:34:33.377Z,72.72
2023-05-18T08:35:33.207Z,72.45
2023-05-18T08:36:33.195Z,72.65
2023-05-18T08:37:33.359Z,74.19
2023-05-18T08:38:33.549Z,72.65
2023-05-18T08:39:34.709Z,72.72
2023-05-18T08:40:35.300Z,72.48
2023-05-18T08:41:34.839Z,72.17
2023-05-18T08:42:48.518Z,71.29
2023-05-18T08:43:36.432Z,71.19
2023-05-18T08:44:34.560Z,72.82
2023-05-18T08:45:34.703Z,71.39
2023-05-18T08:46:34.874Z,71.53
2023-05-18T08:47:35.145Z,72.11
2023-05-18T08:48:35.292Z,70.64
2023-05-18T08:49:36.421Z,71.77
2023-05-18T08:50:36.302Z,69.72
2023-05-18T08:51:37.308Z,69.65
2023-05-18T08:52:36.092Z,69.96
2023-05-18T08:53:36.841Z,69.65
2023-05-18T08:54:36.466Z,69.55
2023-05-18T08:55:36.598Z,70.13
2023-05-18T08:56:36.792Z,70.64
2023-05-18T08:57:37.353Z,70.71
2023-05-18T08:58:37.142Z,69.59
2023-05-18T08:59:37.327Z,69.35
2023-05-18T09:00:38.400Z,69.59
2023-05-18T09:01:37.790Z,68.80
2023-05-18T09:02:37.951Z,69.45
2023-05-18T09:03:38.131Z,70.95
2023-05-18T09:04:39.843Z,69.82
2023-05-18T09:05:38.519Z,69.31
2023-05-18T09:06:39.351Z,72.55
2023-05-18T09:07:39.806Z,69.69
2023-05-18T09:08:39.847Z,68.60
2023-05-18T09:09:39.806Z,69.11
2023-05-18T09:10:39.342Z,69.48
2023-05-18T09:11:40.804Z,67.92
2023-05-18T09:12:40.302Z,68.02
2023-05-18T09:13:39.817Z,68.63
2023-05-18T09:14:41.311Z,69.42
2023-05-18T09:15:40.887Z,69.62
2023-05-18T09:16:40.331Z,67.55
2023-05-18T09:17:41.397Z,67.65
2023-05-18T09:18:41.190Z,67.62
2023-05-18T09:19:41.394Z,66.83
2023-05-18T09:20:41.068Z,66.56
2023-05-18T09:21:41.816Z,67.35
2023-05-18T09:22:41.472Z,67.27
2023-05-18T09:23:41.665Z,67.89
2023-05-18T09:24:42.349Z,67.27
2023-05-18T09:25:42.009Z,68.50
2023-05-18T09:26:42.225Z,68.09
2023-05-18T09:27:44.173Z,69.29
2023-05-18T09:28:42.551Z,67.04
2023-05-18T09:29:43.380Z,67.65
2023-05-18T09:30:42.903Z,67.85
2023-05-18T09:31:43.142Z,68.74
2023-05-18T09:32:43.906Z,66.09
2023-05-18T09:33:44.326Z,66.12
2023-05-18T09:34:44.316Z,66.66
2023-05-18T09:35:43.836Z,67.68
2023-05-18T09:36:44.030Z,68.23
2023-05-18T09:37:44.186Z,70.14
2023-05-18T09:38:44.390Z,67.38
2023-05-18T09:39:44.577Z,68.91
2023-05-18T09:40:44.683Z,68.37
2023-05-18T09:41:44.836Z,68.16
2023-05-18T09:42:45.828Z,67.89
2023-05-18T09:43:45.379Z,68.50
2023-05-18T09:44:46.681Z,69.62
2023-05-18T09:45:46.360Z,68.50
2023-05-18T09:46:45.918Z,68.74
2023-05-18T09:47:46.863Z,68.94
2023-05-18T09:48:46.823Z,69.56
2023-05-18T09:49:46.491Z,69.24
2023-05-18T09:50:47.358Z,68.02
2023-05-18T09:51:46.768Z,68.53
2023-05-18T09:52:46.914Z,69.86
2023-05-18T09:53:49.833Z,69.32
2023-05-18T09:54:48.324Z,67.79
2023-05-18T09:55:47.456Z,68.50
2023-05-18T09:56:55.340Z,68.16
2023-05-18T09:57:50.384Z,69.05
2023-05-18T09:58:47.870Z,68.30
2023-05-18T09:59:48.380Z,67.08
2023-05-18T10:00:48.877Z,66.97
2023-05-18T10:01:48.430Z,66.97
2023-05-18T10:02:48.628Z,67.46
2023-05-18T10:03:48.855Z,65.52
2023-05-18T10:04:50.112Z,66.33
2023-05-18T10:05:49.258Z,65.62
2023-05-18T10:06:49.454Z,67.12
2023-05-18T10:07:49.640Z,65.56
2023-05-18T10:08:50.372Z,65.09
2023-05-18T10:09:50.830Z,64.84
2023-05-18T10:10:51.830Z,65.49
2023-05-18T10:11:50.484Z,65.69
2023-05-18T10:12:51.380Z,66.71
2023-05-18T10:13:51.866Z,66.71
2023-05-18T10:14:51.116Z,66.74
2023-05-18T10:15:51.280Z,67.35
2023-05-18T10:16:55.212Z,66.64
2023-05-18T10:17:52.620Z,66.74
2023-05-18T10:18:52.400Z,67.15
2023-05-18T10:19:51.939Z,67.22
2023-05-18T10:20:52.085Z,65.80
2023-05-18T10:21:52.834Z,65.46
2023-05-18T10:22:53.336Z,64.78
2023-05-18T10:23:53.333Z,64.67
2023-05-18T10:24:52.951Z,65.80
2023-05-18T10:25:53.875Z,65.69
2023-05-18T10:26:55.712Z,66.00
2023-05-18T10:27:53.454Z,65.62
2023-05-18T10:28:53.672Z,66.54
2023-05-18T10:29:53.883Z,66.64
2023-05-18T10:30:53.943Z,66.82
2023-05-18T10:31:54.094Z,67.12
2023-05-18T10:32:54.304Z,67.19
2023-05-18T10:33:54.890Z,65.59
2023-05-18T10:34:55.341Z,66.10
2023-05-18T10:35:55.208Z,67.63
2023-05-18T10:36:54.831Z,67.80
2023-05-18T10:37:54.997Z,67.19
2023-05-18T10:38:55.167Z,66.35
2023-05-18T10:39:55.297Z,67.36
2023-05-18T10:40:56.352Z,66.35
2023-05-18T10:41:56.343Z,65.77
2023-05-18T10:42:56.390Z,66.82
2023-05-18T10:43:55.928Z,66.41
2023-05-18T10:44:56.873Z,67.02
2023-05-18T10:45:57.460Z,67.60
2023-05-18T10:46:56.539Z,67.08
2023-05-18T10:47:56.570Z,65.33
2023-05-18T10:48:56.899Z,66.96
2023-05-18T10:49:56.972Z,65.36
2023-05-18T10:50:57.894Z,65.28
2023-05-18T10:51:57.310Z,65.39
2023-05-18T10:52:57.503Z,66.44
2023-05-18T10:53:58.402Z,66.64
2023-05-18T10:54:57.840Z,66.41
2023-05-18T10:55:58.855Z,68.24
2023-05-18T10:56:58.135Z,67.49
2023-05-18T10:57:58.888Z,66.65
2023-05-18T10:58:59.410Z,65.97
2023-05-18T10:59:58.674Z,65.56
2023-05-18T11:00:59.395Z,66.27
2023-05-18T11:01:59.087Z,66.58
2023-05-18T11:02:59.196Z,66.88
2023-05-18T11:03:59.405Z,67.77
2023-05-18T11:05:00.412Z,66.35
2023-05-18T11:06:00.354Z,65.56
2023-05-18T11:06:59.858Z,67.29
2023-05-18T11:08:00.891Z,66.44
2023-05-18T11:09:00.226Z,66.04
2023-05-18T11:10:01.419Z,67.49
2023-05-18T11:11:00.577Z,66.38
2023-05-18T11:12:00.784Z,66.85
2023-05-18T11:13:02.359Z,66.55
2023-05-18T11:14:01.125Z,65.53
2023-05-18T11:15:01.283Z,66.17
2023-05-18T11:16:01.475Z,66.47
2023-05-18T11:17:01.649Z,66.24
2023-05-18T11:18:01.955Z,66.31
2023-05-18T11:19:03.025Z,65.50
2023-05-18T11:20:02.244Z,66.00
2023-05-18T11:21:02.440Z,66.55
2023-05-18T11:22:03.390Z,65.53
2023-05-18T11:23:02.822Z,65.22
2023-05-18T11:24:02.976Z,66.92
2023-05-18T11:25:03.161Z,65.33
2023-05-18T11:26:03.334Z,66.14
2023-05-18T11:27:04.356Z,67.26
2023-05-18T11:28:03.902Z,66.04
2023-05-18T11:29:03.953Z,67.16
2023-05-18T11:30:15.174Z,67.16
2023-05-18T11:31:06.231Z,66.11
2023-05-18T11:32:05.254Z,65.63
2023-05-18T11:33:04.692Z,66.75
2023-05-18T11:34:05.358Z,66.85
2023-05-18T11:35:05.005Z,68.07
2023-05-18T11:36:05.868Z,67.22
2023-05-18T11:37:06.360Z,65.77
2023-05-18T11:38:05.623Z,65.30
2023-05-18T11:39:05.803Z,65.91
2023-05-18T11:40:10.167Z,66.44
2023-05-18T11:41:07.175Z,65.39
2023-05-18T11:42:06.313Z,65.39
2023-05-18T11:43:07.394Z,65.70
2023-05-18T11:44:06.755Z,65.19
2023-05-18T11:45:06.884Z,65.30
2023-05-18T11:46:07.096Z,65.77
2023-05-18T11:47:07.340Z,65.97
2023-05-18T11:48:08.477Z,65.16
2023-05-18T11:49:09.487Z,65.97
2023-05-18T11:50:08.876Z,65.77
2023-05-18T11:51:08.899Z,65.26
2023-05-18T11:52:08.180Z,65.57
2023-05-18T11:53:09.855Z,65.09
2023-05-18T11:54:08.611Z,66.82
2023-05-18T11:55:08.802Z,65.06
2023-05-18T11:56:09.970Z,64.96
2023-05-18T11:57:10.970Z,66.58
2023-05-18T11:58:10.372Z,66.55
2023-05-18T11:59:10.357Z,66.02
2023-05-18T12:00:10.442Z,66.22
2023-05-18T12:01:09.856Z,64.36
2023-05-18T12:02:10.991Z,65.37
2023-05-18T12:03:12.397Z,64.29
2023-05-18T12:04:10.538Z,65.88
2023-05-18T12:05:11.424Z,66.46
2023-05-18T12:06:10.816Z,65.13
2023-05-18T12:07:11.902Z,66.32
2023-05-18T12:08:11.724Z,65.17
2023-05-18T12:09:11.380Z,64.79
2023-05-18T12:10:11.653Z,64.36
2023-05-18T12:11:12.362Z,64.46
2023-05-18T12:12:11.910Z,64.79
2023-05-18T12:13:12.160Z,65.27
2023-05-18T12:14:12.381Z,65.04
2023-05-18T12:15:13.499Z,64.29
2023-05-18T12:16:12.753Z,64.90
2023-05-18T12:17:12.954Z,65.03
2023-05-18T12:18:13.080Z,66.42
2023-05-18T12:19:13.475Z,64.87
2023-05-18T12:20:13.472Z,63.75
2023-05-18T12:21:14.867Z,64.56
2023-05-18T12:22:14.397Z,64.87
2023-05-18T12:23:14.866Z,63.34
2023-05-18T12:24:14.546Z,63.75
2023-05-18T12:25:15.231Z,64.79
2023-05-18T12:26:15.360Z,64.23
2023-05-18T12:27:14.640Z,64.23
2023-05-18T12:28:15.404Z,64.33
2023-05-18T12:29:15.863Z,64.26
2023-05-18T12:30:15.427Z,64.67
2023-05-18T12:31:17.262Z,63.65
2023-05-18T12:32:16.415Z,63.95
2023-05-18T12:33:15.875Z,64.15
2023-05-18T12:34:16.913Z,63.92
2023-05-18T12:35:16.431Z,64.43
2023-05-18T12:36:17.886Z,63.72
2023-05-18T12:37:16.921Z,64.13
2023-05-18T12:38:17.422Z,64.50
2023-05-18T12:39:16.969Z,64.10
2023-05-18T12:40:18.023Z,63.79
2023-05-18T12:41:17.323Z,62.98
2023-05-18T12:42:18.877Z,63.34
2023-05-18T12:43:17.728Z,63.88
2023-05-18T12:44:17.814Z,63.98
2023-05-18T12:45:18.926Z,65.30
2023-05-18T12:46:18.956Z,64.90
2023-05-18T12:47:18.414Z,65.10
2023-05-18T12:48:18.548Z,64.76
2023-05-18T12:49:19.420Z,65.14
2023-05-18T12:50:18.966Z,63.52
2023-05-18T12:51:19.920Z,63.45
2023-05-18T12:52:19.380Z,62.81
2023-05-18T12:53:19.484Z,63.42
2023-05-18T12:54:20.375Z,62.20